Time;durP1;ratioP1;P1;durP2;ratioP2;P2;SDS_P1;SDS_P2;PMS_P1;PMS_P2;Temp;Humidity;BMP_temperature;BMP_pressure;BME280_temperature;BME280_humidity;BME280_pressure;Samples;Min_cycle;Max_cycle;Signal;HPM_P1;HPM_P2
2022/06/12 00:00:43;;;;;;;;;;;19.60;99.90;;;;;;4591834;19;19911;-32
2022/06/12 00:02:14;;;;;;;;;;;19.60;99.90;;;;;;4593719;19;19922;-34
2022/06/12 00:03:46;;;;;;;;;;;19.60;99.90;;;;;;4591949;19;20323;-33
2022/06/12 00:05:18;;;;;;;;;;;19.60;99.90;;;;;;4591588;19;19978;-33
2022/06/12 00:06:49;;;;;;;;;;;19.60;99.90;;;;;;4592104;19;19954;-32
2022/06/12 00:08:20;;;;;;;;;;;19.60;99.90;;;;;;4592434;19;19918;-32
2022/06/12 00:09:51;;;;;;;;;;;19.60;99.90;;;;;;4590660;19;20016;-32
2022/06/12 00:11:23;;;;;;;;;;;19.60;99.90;;;;;;4591297;19;19915;-32
2022/06/12 00:12:54;;;;;;;;;;;19.60;99.90;;;;;;4593316;19;19927;-32
2022/06/12 00:14:25;;;;;;;;;;;19.60;99.90;;;;;;4593163;19;20361;-33
2022/06/12 00:15:56;;;;;;;;;;;19.60;99.90;;;;;;4592156;19;19914;-33
2022/06/12 00:17:27;;;;;;;;;;;19.60;99.90;;;;;;4591083;19;19974;-31
2022/06/12 00:18:58;;;;;;;;;;;19.60;99.90;;;;;;4591605;19;19919;-32
2022/06/12 00:20:29;;;;;;;;;;;19.60;99.90;;;;;;4591895;19;19915;-32
2022/06/12 00:22:00;;;;;;;;;;;19.60;99.90;;;;;;4591085;19;19925;-33
2022/06/12 00:23:31;;;;;;;;;;;19.60;99.90;;;;;;4589917;19;19914;-33
2022/06/12 00:25:03;;;;;;;;;;;19.60;99.90;;;;;;4592557;19;19929;-32
2022/06/12 00:26:35;;;;;;;;;;;19.60;99.90;;;;;;4592851;19;19919;-32
2022/06/12 00:28:07;;;;;;;;;;;19.60;99.90;;;;;;4593084;19;20458;-33
2022/06/12 00:29:38;;;;;;;;;;;19.60;99.90;;;;;;4592042;19;19938;-33
2022/06/12 00:31:09;;;;;;;;;;;19.60;99.90;;;;;;4592051;19;19915;-34
2022/06/12 00:32:40;;;;;;;;;;;19.60;99.90;;;;;;4591631;19;20365;-31
2022/06/12 00:34:12;;;;;;;;;;;19.60;99.90;;;;;;4591323;19;20321;-33
2022/06/12 00:35:43;;;;;;;;;;;19.60;99.90;;;;;;4590843;19;19919;-32
2022/06/12 00:37:14;;;;;;;;;;;19.60;99.90;;;;;;4590048;19;19935;-32
2022/06/12 00:38:45;;;;;;;;;;;19.60;99.90;;;;;;4593098;19;19974;-32
2022/06/12 00:40:17;;;;;;;;;;;19.60;99.90;;;;;;4593221;19;19922;-34
2022/06/12 00:41:48;;;;;;;;;;;19.60;99.90;;;;;;4592923;19;19935;-33
2022/06/12 00:43:19;;;;;;;;;;;19.60;99.90;;;;;;4591401;19;19917;-32
2022/06/12 00:44:51;;;;;;;;;;;19.60;99.90;;;;;;4591751;19;19923;-32
2022/06/12 00:46:37;;;;;;;;;;;19.60;99.90;;;;;;4591713;19;19936;-32
2022/06/12 00:48:09;;;;;;;;;;;19.60;99.90;;;;;;4589542;19;19942;-32
2022/06/12 00:49:42;;;;;;;;;;;19.60;99.90;;;;;;4590706;19;19919;-34
2022/06/12 00:51:14;;;;;;;;;;;19.60;99.90;;;;;;4590878;19;19939;-33
2022/06/12 00:52:46;;;;;;;;;;;19.60;99.90;;;;;;4589617;19;19918;-32
2022/06/12 00:54:17;;;;;;;;;;;19.60;99.90;;;;;;4589473;19;19958;-34
2022/06/12 00:55:48;;;;;;;;;;;19.50;99.90;;;;;;4592262;19;20249;-33
2022/06/12 00:57:19;;;;;;;;;;;19.50;99.90;;;;;;4592461;19;20281;-33
2022/06/12 00:58:51;;;;;;;;;;;19.50;99.90;;;;;;4591472;19;19935;-32
2022/06/12 01:00:22;;;;;;;;;;;19.60;99.90;;;;;;4590531;19;19994;-32
2022/06/12 01:01:53;;;;;;;;;;;19.60;99.90;;;;;;4590667;19;19970;-33
2022/06/12 01:03:25;;;;;;;;;;;19.60;99.90;;;;;;4590878;19;19940;-32
2022/06/12 01:06:46;;;;;;;;;;;19.60;99.90;;;;;;4589779;19;19914;-31
2022/06/12 01:08:17;;;;;;;;;;;19.60;99.90;;;;;;4589529;19;19922;-32
2022/06/12 01:09:49;;;;;;;;;;;19.60;99.90;;;;;;4589180;19;20226;-32
2022/06/12 01:11:22;;;;;;;;;;;19.60;99.90;;;;;;4590081;19;19982;-33
2022/06/12 01:12:54;;;;;;;;;;;19.60;99.90;;;;;;4592482;19;19947;-32
2022/06/12 01:14:31;;;;;;;;;;;19.60;99.90;;;;;;4590523;19;19923;-32
2022/06/12 01:16:08;;;;;;;;;;;19.60;99.90;;;;;;4590545;19;20690;-31
2022/06/12 01:17:39;;;;;;;;;;;19.60;99.90;;;;;;4590283;19;19933;-32
2022/06/12 01:19:10;;;;;;;;;;;19.60;99.90;;;;;;4590178;19;20333;-32
2022/06/12 01:20:48;;;;;;;;;;;19.60;99.90;;;;;;4589394;19;19907;-34
2022/06/12 01:22:37;;;;;;;;;;;19.60;99.90;;;;;;4589334;19;20293;-32
2022/06/12 01:24:21;;;;;;;;;;;19.60;99.90;;;;;;4590669;19;19911;-32
2022/06/12 01:25:55;;;;;;;;;;;19.60;99.90;;;;;;4590793;19;19970;-33
2022/06/12 01:27:33;;;;;;;;;;;19.50;99.90;;;;;;4590690;19;19922;-33
2022/06/12 01:29:21;;;;;;;;;;;19.50;99.90;;;;;;4589026;19;19975;-32
2022/06/12 01:31:11;;;;;;;;;;;19.50;99.90;;;;;;4589226;19;19914;-32
2022/06/12 01:32:42;;;;;;;;;;;19.50;99.90;;;;;;4590356;19;19919;-32
2022/06/12 01:34:13;;;;;;;;;;;19.50;99.90;;;;;;4590112;19;20344;-31
2022/06/12 01:36:13;;;;;;;;;;;19.50;99.90;;;;;;4589911;19;20329;-34
2022/06/12 01:37:47;;;;;;;;;;;19.50;99.90;;;;;;4588060;19;19924;-33
2022/06/12 01:39:31;;;;;;;;;;;19.50;99.90;;;;;;4587604;19;19929;-32
2022/06/12 01:41:21;;;;;;;;;;;19.50;99.90;;;;;;4587603;19;19948;-33
2022/06/12 01:42:55;;;;;;;;;;;19.60;99.90;;;;;;4587923;19;20033;-32
2022/06/12 01:44:29;;;;;;;;;;;19.70;99.90;;;;;;4587764;19;19932;-33
2022/06/12 01:46:15;;;;;;;;;;;19.70;99.90;;;;;;4587488;19;20341;-34
2022/06/12 01:47:48;;;;;;;;;;;19.70;99.90;;;;;;4587337;19;19972;-31
2022/06/12 01:49:39;;;;;;;;;;;19.70;99.90;;;;;;4586881;19;20008;-32
2022/06/12 01:51:19;;;;;;;;;;;19.70;99.90;;;;;;4587733;19;20325;-32
2022/06/12 01:53:08;;;;;;;;;;;19.70;99.90;;;;;;4587613;19;19944;-31
2022/06/12 01:54:39;;;;;;;;;;;19.60;99.90;;;;;;4587807;19;19915;-31
2022/06/12 01:56:23;;;;;;;;;;;19.60;99.90;;;;;;4587561;19;19921;-32
2022/06/12 01:57:59;;;;;;;;;;;19.60;99.90;;;;;;4587285;19;19915;-31
2022/06/12 01:59:30;;;;;;;;;;;19.50;99.90;;;;;;4586678;19;19921;-33
2022/06/12 02:01:10;;;;;;;;;;;19.50;99.90;;;;;;4587225;19;19915;-32
2022/06/12 02:02:46;;;;;;;;;;;19.50;99.90;;;;;;4587318;19;19926;-33
2022/06/12 02:04:21;;;;;;;;;;;19.50;99.90;;;;;;4589634;19;19925;-31
2022/06/12 02:05:53;;;;;;;;;;;19.50;99.90;;;;;;4589474;19;19919;-33
2022/06/12 02:07:27;;;;;;;;;;;19.40;99.90;;;;;;4589090;19;19927;-31
2022/06/12 02:09:06;;;;;;;;;;;19.40;99.90;;;;;;4588754;19;20306;-33
2022/06/12 02:10:45;;;;;;;;;;;19.40;99.90;;;;;;4588647;19;19938;-32
2022/06/12 02:14:09;;;;;;;;;;;19.40;99.90;;;;;;4588314;19;19939;-31
2022/06/12 02:15:46;;;;;;;;;;;19.40;99.90;;;;;;4590031;19;19926;-32
2022/06/12 02:17:19;;;;;;;;;;;19.40;99.90;;;;;;4593074;19;19943;-32
2022/06/12 02:19:13;;;;;;;;;;;19.40;99.90;;;;;;4592875;19;19925;-32
2022/06/12 02:20:47;;;;;;;;;;;19.40;99.90;;;;;;4592112;19;20089;-34
2022/06/12 02:22:20;;;;;;;;;;;19.40;99.90;;;;;;4591647;19;20251;-31
2022/06/12 02:23:51;;;;;;;;;;;19.40;99.90;;;;;;4591679;19;19910;-32
2022/06/12 02:25:24;;;;;;;;;;;19.40;99.90;;;;;;4591445;19;19943;-31
2022/06/12 02:27:00;;;;;;;;;;;19.40;99.90;;;;;;4591397;19;20366;-32
2022/06/12 02:28:36;;;;;;;;;;;19.40;99.90;;;;;;4593804;19;19919;-32
2022/06/12 02:30:11;;;;;;;;;;;19.40;99.90;;;;;;4592659;19;19910;-33
2022/06/12 02:31:43;;;;;;;;;;;19.40;99.90;;;;;;4593710;19;19907;-32
2022/06/12 02:33:17;;;;;;;;;;;19.30;99.90;;;;;;4593063;19;19937;-33
2022/06/12 02:34:50;;;;;;;;;;;19.30;99.90;;;;;;4593183;19;20000;-33
2022/06/12 02:36:23;;;;;;;;;;;19.30;99.90;;;;;;4592405;19;19919;-33
2022/06/12 02:37:54;;;;;;;;;;;19.30;99.90;;;;;;4592258;19;20026;-32
2022/06/12 02:39:30;;;;;;;;;;;19.30;99.90;;;;;;4591596;19;19931;-33
2022/06/12 02:41:05;;;;;;;;;;;19.40;99.90;;;;;;4591697;19;19950;-31
2022/06/12 02:42:37;;;;;;;;;;;19.30;99.90;;;;;;4591255;19;20368;-33
2022/06/12 02:44:10;;;;;;;;;;;19.30;99.90;;;;;;4590997;19;19935;-31
2022/06/12 02:45:45;;;;;;;;;;;19.30;99.90;;;;;;4591142;19;19919;-32
2022/06/12 02:47:17;;;;;;;;;;;19.30;99.90;;;;;;4593612;19;19911;-31
2022/06/12 02:48:48;;;;;;;;;;;19.30;99.90;;;;;;4591664;19;19925;-33
2022/06/12 02:50:22;;;;;;;;;;;19.30;99.90;;;;;;4591336;19;19935;-31
2022/06/12 02:51:55;;;;;;;;;;;19.30;99.90;;;;;;4592556;19;19990;-32
2022/06/12 02:53:32;;;;;;;;;;;19.30;99.90;;;;;;4592317;19;19918;-32
2022/06/12 02:55:15;;;;;;;;;;;19.30;99.90;;;;;;4592372;19;19939;-32
2022/06/12 02:56:47;;;;;;;;;;;19.30;99.90;;;;;;4592492;19;19919;-32
2022/06/12 02:58:19;;;;;;;;;;;19.30;99.90;;;;;;4592288;19;20002;-32
2022/06/12 02:59:53;;;;;;;;;;;19.30;99.90;;;;;;4591620;19;19926;-32
2022/06/12 03:01:28;;;;;;;;;;;19.30;99.90;;;;;;4593272;19;19918;-33
2022/06/12 03:03:06;;;;;;;;;;;19.30;99.90;;;;;;4592265;19;19928;-33
2022/06/12 03:04:42;;;;;;;;;;;19.30;99.90;;;;;;4591807;19;20329;-33
2022/06/12 03:06:14;;;;;;;;;;;19.30;99.90;;;;;;4591592;19;19919;-32
2022/06/12 03:07:45;;;;;;;;;;;19.30;99.90;;;;;;4592412;19;19971;-32
2022/06/12 03:09:16;;;;;;;;;;;19.30;99.90;;;;;;4595149;19;20329;-31
2022/06/12 03:10:49;;;;;;;;;;;19.30;99.90;;;;;;4593688;19;19947;-33
2022/06/12 03:12:20;;;;;;;;;;;19.30;99.90;;;;;;4593132;19;20029;-33
2022/06/12 03:13:52;;;;;;;;;;;19.30;99.90;;;;;;4593178;19;19970;-32
2022/06/12 03:15:34;;;;;;;;;;;19.30;99.90;;;;;;4591735;19;19941;-32
2022/06/12 03:17:05;;;;;;;;;;;19.30;99.90;;;;;;4592486;19;20326;-32
2022/06/12 03:18:38;;;;;;;;;;;19.30;99.90;;;;;;4592606;19;19917;-32
2022/06/12 03:20:11;;;;;;;;;;;19.30;99.90;;;;;;4592842;19;19919;-32
2022/06/12 03:21:42;;;;;;;;;;;19.30;99.90;;;;;;4594279;19;19929;-32
2022/06/12 03:23:27;;;;;;;;;;;19.30;99.90;;;;;;4594326;19;19918;-31
2022/06/12 03:25:17;;;;;;;;;;;19.30;99.90;;;;;;4593733;19;19923;-33
2022/06/12 03:26:57;;;;;;;;;;;19.30;99.90;;;;;;4594660;19;19919;-33
2022/06/12 03:28:34;;;;;;;;;;;19.30;99.90;;;;;;4592847;19;19914;-32
2022/06/12 03:30:17;;;;;;;;;;;19.30;99.90;;;;;;4592450;19;20255;-31
2022/06/12 03:31:54;;;;;;;;;;;19.30;99.90;;;;;;4594324;19;19918;-31
2022/06/12 03:33:51;;;;;;;;;;;19.30;99.90;;;;;;4593262;19;19918;-33
2022/06/12 03:35:22;;;;;;;;;;;19.30;99.90;;;;;;4591268;19;20314;-31
2022/06/12 03:36:57;;;;;;;;;;;19.30;99.90;;;;;;4594708;19;19926;-32
2022/06/12 03:38:31;;;;;;;;;;;19.30;99.90;;;;;;4593419;19;19943;-33
2022/06/12 03:40:14;;;;;;;;;;;19.30;99.90;;;;;;4592926;19;19926;-33
2022/06/12 03:41:54;;;;;;;;;;;19.30;99.90;;;;;;4592965;19;20261;-33
2022/06/12 03:43:28;;;;;;;;;;;19.30;99.90;;;;;;4592746;19;19926;-32
2022/06/12 03:45:01;;;;;;;;;;;19.30;99.90;;;;;;4592809;19;19931;-32
2022/06/12 03:46:36;;;;;;;;;;;19.20;99.90;;;;;;4592096;19;19918;-32
2022/06/12 03:48:24;;;;;;;;;;;19.30;99.90;;;;;;4592018;19;19915;-34
2022/06/12 03:50:08;;;;;;;;;;;19.20;99.90;;;;;;4591006;19;19919;-33
2022/06/12 03:51:42;;;;;;;;;;;19.30;99.90;;;;;;4592050;19;20294;-32
2022/06/12 03:53:13;;;;;;;;;;;19.30;99.90;;;;;;4592877;19;19923;-32
2022/06/12 03:54:47;;;;;;;;;;;19.30;99.90;;;;;;4592366;19;19911;-32
2022/06/12 03:58:19;;;;;;;;;;;19.30;99.90;;;;;;4592836;19;19978;-32
2022/06/12 03:59:52;;;;;;;;;;;19.30;99.90;;;;;;4591586;19;19960;-32
2022/06/12 04:01:23;;;;;;;;;;;19.30;99.90;;;;;;4592244;19;19915;-32
2022/06/12 04:03:04;;;;;;;;;;;19.30;99.90;;;;;;4592317;19;20021;-32
2022/06/12 04:04:35;;;;;;;;;;;19.30;99.90;;;;;;4592668;19;20047;-32
2022/06/12 04:06:08;;;;;;;;;;;19.30;99.90;;;;;;4590820;19;19911;-33
2022/06/12 04:07:42;;;;;;;;;;;19.30;99.90;;;;;;4591111;19;19915;-33
2022/06/12 04:09:14;;;;;;;;;;;19.30;99.90;;;;;;4590314;19;19957;-32
2022/06/12 04:10:45;;;;;;;;;;;19.30;99.90;;;;;;4590584;19;19922;-32
2022/06/12 04:12:21;;;;;;;;;;;19.30;99.90;;;;;;4592664;19;19918;-32
2022/06/12 04:13:52;;;;;;;;;;;19.30;99.90;;;;;;4590965;19;20330;-32
2022/06/12 04:15:49;;;;;;;;;;;19.30;99.90;;;;;;4590472;19;19915;-33
2022/06/12 04:17:22;;;;;;;;;;;19.40;99.90;;;;;;4591502;19;19923;-31
2022/06/12 04:18:53;;;;;;;;;;;19.40;99.90;;;;;;4591861;19;19915;-32
2022/06/12 04:20:25;;;;;;;;;;;19.40;99.90;;;;;;4590377;19;19939;-32
2022/06/12 04:22:12;;;;;;;;;;;19.40;99.90;;;;;;4590066;19;20270;-33
2022/06/12 04:23:48;;;;;;;;;;;19.40;99.90;;;;;;4590942;19;19919;-32
2022/06/12 04:25:24;;;;;;;;;;;19.30;99.90;;;;;;4591463;19;19922;-34
2022/06/12 04:26:56;;;;;;;;;;;19.40;99.90;;;;;;4589937;19;19918;-34
2022/06/12 04:28:28;;;;;;;;;;;19.40;99.90;;;;;;4592924;19;19918;-33
2022/06/12 04:30:03;;;;;;;;;;;19.40;99.90;;;;;;4591233;19;19986;-33
2022/06/12 04:31:34;;;;;;;;;;;19.40;99.90;;;;;;4592726;19;20341;-32
2022/06/12 04:33:14;;;;;;;;;;;19.40;99.90;;;;;;4591312;19;19951;-32
2022/06/12 04:34:45;;;;;;;;;;;19.40;99.90;;;;;;4592576;19;19986;-33
2022/06/12 04:36:16;;;;;;;;;;;19.40;99.90;;;;;;4592104;19;19923;-33
2022/06/12 04:37:47;;;;;;;;;;;19.00;99.90;;;;;;4590775;19;19915;-34
2022/06/12 04:39:19;;;;;;;;;;;18.70;99.90;;;;;;4591241;19;19915;-32
2022/06/12 04:40:51;;;;;;;;;;;18.30;99.90;;;;;;4593589;19;19922;-33
2022/06/12 04:42:23;;;;;;;;;;;18.00;99.90;;;;;;4592978;19;19992;-33
2022/06/12 04:43:54;;;;;;;;;;;17.80;99.90;;;;;;4591874;19;19992;-33
2022/06/12 04:45:25;;;;;;;;;;;17.60;99.90;;;;;;4592336;19;19923;-33
2022/06/12 04:46:56;;;;;;;;;;;17.50;99.90;;;;;;4590871;19;19923;-34
2022/06/12 04:48:29;;;;;;;;;;;17.40;99.90;;;;;;4589304;19;19922;-32
2022/06/12 04:50:00;;;;;;;;;;;17.30;99.90;;;;;;4589250;19;19919;-32
2022/06/12 04:51:31;;;;;;;;;;;17.30;99.90;;;;;;4591121;19;19939;-32
2022/06/12 04:53:02;;;;;;;;;;;17.30;99.90;;;;;;4587937;19;19942;-32
2022/06/12 04:54:33;;;;;;;;;;;17.40;99.90;;;;;;4589697;19;19919;-33
2022/06/12 04:56:04;;;;;;;;;;;17.40;99.90;;;;;;4593294;19;19922;-34
2022/06/12 04:57:35;;;;;;;;;;;17.40;99.90;;;;;;4592985;19;19919;-32
2022/06/12 04:59:07;;;;;;;;;;;17.40;99.90;;;;;;4592300;19;19922;-31
2022/06/12 05:00:38;;;;;;;;;;;17.40;99.90;;;;;;4589847;19;19922;-31
2022/06/12 05:02:09;;;;;;;;;;;17.40;99.90;;;;;;4591347;19;19939;-32
2022/06/12 05:03:40;;;;;;;;;;;17.50;99.90;;;;;;4591193;19;19911;-33
2022/06/12 05:05:11;;;;;;;;;;;17.50;99.90;;;;;;4590693;19;19921;-33
2022/06/12 05:06:42;;;;;;;;;;;17.50;99.90;;;;;;4590196;19;19939;-34
2022/06/12 05:08:15;;;;;;;;;;;17.50;99.90;;;;;;4590382;19;20249;-33
2022/06/12 05:09:48;;;;;;;;;;;17.50;99.90;;;;;;4591208;19;19915;-32
2022/06/12 05:11:19;;;;;;;;;;;17.50;99.90;;;;;;4591876;19;19922;-32
2022/06/12 05:12:50;;;;;;;;;;;17.40;99.90;;;;;;4591196;19;20284;-33
2022/06/12 05:14:22;;;;;;;;;;;17.40;99.90;;;;;;4591947;19;19926;-32
2022/06/12 05:16:01;;;;;;;;;;;17.30;99.90;;;;;;4592312;19;19923;-34
2022/06/12 05:17:32;;;;;;;;;;;17.30;99.90;;;;;;4592442;19;19942;-32
2022/06/12 05:19:04;;;;;;;;;;;17.20;99.90;;;;;;4592189;19;20354;-32
2022/06/12 05:20:37;;;;;;;;;;;17.20;99.90;;;;;;4591716;19;20294;-32
2022/06/12 05:22:08;;;;;;;;;;;17.20;99.90;;;;;;4590158;19;19923;-34
2022/06/12 05:23:42;;;;;;;;;;;17.20;99.90;;;;;;4589973;19;19922;-32
2022/06/12 05:25:17;;;;;;;;;;;17.20;99.90;;;;;;4591383;19;19923;-31
2022/06/12 05:26:48;;;;;;;;;;;17.20;99.90;;;;;;4590741;19;19919;-30
2022/06/12 05:28:19;;;;;;;;;;;17.20;99.90;;;;;;4591233;19;20329;-31
2022/06/12 05:29:50;;;;;;;;;;;17.20;99.90;;;;;;4589949;19;19911;-31
2022/06/12 05:31:22;;;;;;;;;;;17.20;99.90;;;;;;4591193;19;20294;-32
2022/06/12 05:32:53;;;;;;;;;;;17.20;99.90;;;;;;4590453;19;19926;-34
2022/06/12 05:34:25;;;;;;;;;;;17.30;99.90;;;;;;4591004;19;19931;-32
2022/06/12 05:35:56;;;;;;;;;;;17.30;99.90;;;;;;4590146;19;20360;-31
2022/06/12 05:37:27;;;;;;;;;;;17.30;99.90;;;;;;4591858;19;19939;-31
2022/06/12 05:38:58;;;;;;;;;;;17.30;99.90;;;;;;4591255;19;19919;-32
2022/06/12 05:40:32;;;;;;;;;;;17.30;99.90;;;;;;4591841;19;19921;-31
2022/06/12 05:42:05;;;;;;;;;;;17.30;99.90;;;;;;4591587;19;19942;-32
2022/06/12 05:43:40;;;;;;;;;;;17.30;99.90;;;;;;4591671;19;19932;-32
2022/06/12 05:45:12;;;;;;;;;;;17.40;99.90;;;;;;4591024;19;20332;-31
2022/06/12 05:46:44;;;;;;;;;;;17.40;99.90;;;;;;4591161;19;20302;-33
2022/06/12 05:48:16;;;;;;;;;;;17.30;99.90;;;;;;4590307;19;19914;-32
2022/06/12 05:49:48;;;;;;;;;;;17.40;99.90;;;;;;4591458;19;19919;-34
2022/06/12 05:51:19;;;;;;;;;;;17.40;99.90;;;;;;4589326;19;19936;-30
2022/06/12 05:52:50;;;;;;;;;;;17.30;99.90;;;;;;4591178;19;19914;-34
2022/06/12 05:54:21;;;;;;;;;;;17.40;99.90;;;;;;4591537;19;19914;-32
2022/06/12 05:55:53;;;;;;;;;;;17.30;99.90;;;;;;4591020;19;20275;-33
2022/06/12 05:57:24;;;;;;;;;;;17.30;99.90;;;;;;4591127;19;19948;-34
2022/06/12 05:58:55;;;;;;;;;;;17.30;99.90;;;;;;4591140;19;19919;-33
2022/06/12 06:00:27;;;;;;;;;;;17.30;99.90;;;;;;4590814;19;19926;-33
2022/06/12 06:01:59;;;;;;;;;;;17.20;99.90;;;;;;4593080;19;19922;-33
2022/06/12 06:03:30;;;;;;;;;;;17.30;99.90;;;;;;4593116;19;19919;-33
2022/06/12 06:05:01;;;;;;;;;;;17.20;99.90;;;;;;4592710;19;19911;-32
2022/06/12 06:06:33;;;;;;;;;;;17.30;99.90;;;;;;4592626;19;20252;-31
2022/06/12 06:08:04;;;;;;;;;;;17.40;99.90;;;;;;4591694;19;20302;-30
2022/06/12 06:09:45;;;;;;;;;;;17.50;99.90;;;;;;4591952;19;19964;-34
2022/06/12 06:11:48;;;;;;;;;;;17.60;99.90;;;;;;4591569;19;19919;-34
2022/06/12 06:13:37;;;;;;;;;;;17.70;99.90;;;;;;4590266;19;19932;-31
2022/06/12 06:15:12;;;;;;;;;;;17.80;99.90;;;;;;4590036;19;19949;-31
2022/06/12 06:16:44;;;;;;;;;;;17.80;99.90;;;;;;4590311;19;19922;-32
2022/06/12 06:18:15;;;;;;;;;;;17.80;99.90;;;;;;4590294;19;19995;-32
2022/06/12 06:19:46;;;;;;;;;;;17.90;99.90;;;;;;4589884;19;20279;-30
2022/06/12 06:21:18;;;;;;;;;;;17.90;99.90;;;;;;4589583;19;19919;-30
2022/06/12 06:22:49;;;;;;;;;;;17.90;99.90;;;;;;4590319;19;19915;-31
2022/06/12 06:24:21;;;;;;;;;;;18.00;99.90;;;;;;4590928;19;19927;-31
2022/06/12 06:25:53;;;;;;;;;;;18.00;99.90;;;;;;4591141;19;19915;-32
2022/06/12 06:27:24;;;;;;;;;;;18.00;99.90;;;;;;4590724;19;19947;-32
2022/06/12 06:28:56;;;;;;;;;;;18.10;99.90;;;;;;4590463;19;19999;-33
2022/06/12 06:30:28;;;;;;;;;;;18.10;99.90;;;;;;4588574;19;20028;-32
2022/06/12 06:31:59;;;;;;;;;;;18.10;99.90;;;;;;4590466;19;20349;-31
2022/06/12 06:33:31;;;;;;;;;;;18.20;99.90;;;;;;4590250;19;20237;-33
2022/06/12 06:35:04;;;;;;;;;;;18.20;99.90;;;;;;4590071;19;19915;-33
2022/06/12 06:36:35;;;;;;;;;;;18.30;99.90;;;;;;4590853;19;19918;-32
2022/06/12 06:38:06;;;;;;;;;;;18.30;99.90;;;;;;4590639;19;19971;-32
2022/06/12 06:39:38;;;;;;;;;;;18.40;99.90;;;;;;4589935;19;19914;-32
2022/06/12 06:41:09;;;;;;;;;;;18.40;99.90;;;;;;4589922;19;20254;-32
2022/06/12 06:42:40;;;;;;;;;;;18.50;99.90;;;;;;4590726;19;19923;-32
2022/06/12 06:46:13;;;;;;;;;;;18.50;99.90;;;;;;4591703;19;19919;-32
2022/06/12 06:47:45;;;;;;;;;;;18.50;99.90;;;;;;4591901;19;19915;-32
2022/06/12 06:49:17;;;;;;;;;;;18.50;99.90;;;;;;4592428;19;19915;-31
2022/06/12 06:50:48;;;;;;;;;;;18.50;99.90;;;;;;4591050;19;19927;-31
2022/06/12 06:52:19;;;;;;;;;;;18.50;99.90;;;;;;4590500;19;19910;-31
2022/06/12 06:53:50;;;;;;;;;;;18.60;99.90;;;;;;4589804;19;19910;-32
2022/06/12 06:55:21;;;;;;;;;;;18.70;99.90;;;;;;4590734;19;19911;-31
2022/06/12 06:56:52;;;;;;;;;;;18.70;99.90;;;;;;4592314;19;20273;-34
2022/06/12 06:58:24;;;;;;;;;;;18.60;99.90;;;;;;4590811;19;19918;-32
2022/06/12 06:59:58;;;;;;;;;;;18.70;99.90;;;;;;4590932;19;19923;-33
2022/06/12 07:01:29;;;;;;;;;;;18.80;99.90;;;;;;4592216;19;19919;-34
2022/06/12 07:03:00;;;;;;;;;;;18.80;99.90;;;;;;4592502;19;19943;-33
2022/06/12 07:04:32;;;;;;;;;;;18.80;99.90;;;;;;4595192;19;19911;-30
2022/06/12 07:06:03;;;;;;;;;;;18.80;99.90;;;;;;4596606;19;19918;-32
2022/06/12 07:07:34;;;;;;;;;;;18.80;99.90;;;;;;4594074;19;20311;-32
2022/06/12 07:09:05;;;;;;;;;;;18.80;99.90;;;;;;4594518;19;20317;-30
2022/06/12 07:10:39;;;;;;;;;;;18.80;99.90;;;;;;4592677;19;19938;-34
2022/06/12 07:12:10;;;;;;;;;;;18.80;99.90;;;;;;4594426;19;19915;-31
2022/06/12 07:13:41;;;;;;;;;;;18.90;99.90;;;;;;4594441;19;19981;-33
2022/06/12 07:15:12;;;;;;;;;;;18.90;99.90;;;;;;4594623;19;20326;-32
2022/06/12 07:16:43;;;;;;;;;;;19.00;99.90;;;;;;4594137;19;19915;-33
2022/06/12 07:18:14;;;;;;;;;;;18.90;99.90;;;;;;4595377;19;19915;-32
2022/06/12 07:19:45;;;;;;;;;;;19.00;99.90;;;;;;4596163;19;19915;-32
2022/06/12 07:21:17;;;;;;;;;;;19.00;99.90;;;;;;4596378;19;19914;-32
2022/06/12 07:22:48;;;;;;;;;;;19.00;99.90;;;;;;4596339;19;19911;-31
2022/06/12 07:24:19;;;;;;;;;;;19.10;99.90;;;;;;4595770;19;19914;-32
2022/06/12 07:25:51;;;;;;;;;;;19.10;99.90;;;;;;4594429;19;19978;-32
2022/06/12 07:27:22;;;;;;;;;;;19.10;99.90;;;;;;4596086;19;19915;-30
2022/06/12 07:28:53;;;;;;;;;;;19.10;99.90;;;;;;4594185;19;19932;-31
2022/06/12 07:30:24;;;;;;;;;;;19.10;99.90;;;;;;4593289;19;19911;-31
2022/06/12 07:31:56;;;;;;;;;;;19.20;99.90;;;;;;4594629;19;19919;-33
2022/06/12 07:33:27;;;;;;;;;;;19.20;99.90;;;;;;4593737;19;19970;-30
2022/06/12 07:34:57;;;;;;;;;;;19.20;99.90;;;;;;4593962;19;19915;-31
2022/06/12 07:36:28;;;;;;;;;;;19.20;99.90;;;;;;4594098;19;19915;-33
2022/06/12 07:38:00;;;;;;;;;;;19.20;99.90;;;;;;4594154;19;19922;-31
2022/06/12 07:39:31;;;;;;;;;;;19.30;99.90;;;;;;4592725;19;19915;-30
2022/06/12 07:41:02;;;;;;;;;;;19.30;99.90;;;;;;4594426;19;20394;-31
2022/06/12 07:42:33;;;;;;;;;;;19.30;99.90;;;;;;4594766;19;19936;-32
2022/06/12 07:44:05;;;;;;;;;;;19.30;99.90;;;;;;4594058;19;19982;-30
2022/06/12 07:45:37;;;;;;;;;;;19.40;99.90;;;;;;4594317;19;19915;-31
2022/06/12 07:47:08;;;;;;;;;;;19.40;99.90;;;;;;4592597;19;19978;-32
2022/06/12 07:48:39;;;;;;;;;;;19.40;99.90;;;;;;4591664;19;19922;-31
2022/06/12 07:50:10;;;;;;;;;;;19.40;99.90;;;;;;4592341;19;19936;-34
2022/06/12 07:51:41;;;;;;;;;;;19.40;99.90;;;;;;4592641;19;19922;-33
2022/06/12 07:53:12;;;;;;;;;;;19.40;99.90;;;;;;4593297;19;19923;-32
2022/06/12 07:54:44;;;;;;;;;;;19.30;99.90;;;;;;4592602;19;19939;-31
2022/06/12 07:56:15;;;;;;;;;;;19.30;99.90;;;;;;4593024;19;19958;-33
2022/06/12 07:57:46;;;;;;;;;;;19.30;99.90;;;;;;4593821;19;19915;-33
2022/06/12 07:59:17;;;;;;;;;;;19.30;99.90;;;;;;4593965;19;19911;-31
2022/06/12 08:00:49;;;;;;;;;;;19.30;99.90;;;;;;4593238;19;19925;-34
2022/06/12 08:02:21;;;;;;;;;;;19.30;99.90;;;;;;4591969;19;19915;-32
2022/06/12 08:03:52;;;;;;;;;;;19.30;99.90;;;;;;4593186;19;19975;-33
2022/06/12 08:05:23;;;;;;;;;;;19.30;99.90;;;;;;4595696;19;20325;-32
2022/06/12 08:06:54;;;;;;;;;;;19.40;99.90;;;;;;4594310;19;19934;-31
2022/06/12 08:08:26;;;;;;;;;;;19.50;99.90;;;;;;4592971;19;19926;-33
2022/06/12 08:09:57;;;;;;;;;;;19.50;99.90;;;;;;4593059;19;19943;-32
2022/06/12 08:11:28;;;;;;;;;;;19.60;99.90;;;;;;4593448;19;19923;-32
2022/06/12 08:13:01;;;;;;;;;;;19.60;99.90;;;;;;4593087;19;19933;-33
2022/06/12 08:14:33;;;;;;;;;;;19.60;99.90;;;;;;4590451;19;19978;-34
2022/06/12 08:16:04;;;;;;;;;;;19.50;99.90;;;;;;4591046;19;20322;-32
2022/06/12 08:17:35;;;;;;;;;;;19.50;99.90;;;;;;4593124;19;19919;-31
2022/06/12 08:20:24;;;;;;;;;;;19.60;99.90;;;;;;4594112;19;19929;-33
2022/06/12 08:21:07;;;;;;;;;;;19.60;99.90;;;;;;4594088;19;19915;-32
2022/06/12 08:22:38;;;;;;;;;;;19.60;99.90;;;;;;4591903;19;19915;-31
2022/06/12 08:24:10;;;;;;;;;;;19.70;99.90;;;;;;4594277;19;20014;-32
2022/06/12 08:25:42;;;;;;;;;;;19.70;99.90;;;;;;4594498;19;19915;-31
2022/06/12 08:27:13;;;;;;;;;;;19.70;99.90;;;;;;4594768;19;19926;-31
2022/06/12 08:28:45;;;;;;;;;;;19.70;99.90;;;;;;4592548;19;20349;-32
2022/06/12 08:30:17;;;;;;;;;;;19.70;99.90;;;;;;4592936;19;19910;-31
2022/06/12 08:31:49;;;;;;;;;;;19.70;99.90;;;;;;4593374;19;19983;-32
2022/06/12 08:33:20;;;;;;;;;;;19.70;99.90;;;;;;4591531;19;19975;-34
2022/06/12 08:34:54;;;;;;;;;;;19.70;99.90;;;;;;4593687;19;19922;-31
2022/06/12 08:36:25;;;;;;;;;;;19.70;99.90;;;;;;4593657;19;20342;-31
2022/06/12 08:37:56;;;;;;;;;;;19.70;99.90;;;;;;4591568;19;19915;-32
2022/06/12 08:39:27;;;;;;;;;;;19.70;99.90;;;;;;4593578;19;19931;-33
2022/06/12 08:41:10;;;;;;;;;;;19.70;99.90;;;;;;4594112;19;19911;-32
2022/06/12 08:42:44;;;;;;;;;;;19.70;99.90;;;;;;4594416;19;19939;-31
2022/06/12 08:44:34;;;;;;;;;;;19.70;99.90;;;;;;4590233;19;19907;-31
2022/06/12 08:46:22;;;;;;;;;;;19.70;99.90;;;;;;4592521;19;20333;-31
2022/06/12 08:48:04;;;;;;;;;;;19.70;99.90;;;;;;4590849;19;20389;-30
2022/06/12 08:49:38;;;;;;;;;;;19.70;99.90;;;;;;4592174;19;19997;-32
2022/06/12 08:51:31;;;;;;;;;;;19.70;99.90;;;;;;4592783;19;19995;-31
2022/06/12 08:53:37;;;;;;;;;;;19.70;99.90;;;;;;4591777;19;19918;-34
2022/06/12 08:55:37;;;;;;;;;;;19.70;99.90;;;;;;4590514;19;19922;-31
2022/06/12 08:57:29;;;;;;;;;;;19.70;99.90;;;;;;4588966;19;20443;-31
2022/06/12 08:59:15;;;;;;;;;;;19.70;99.90;;;;;;4589368;19;19947;-34
2022/06/12 09:00:46;;;;;;;;;;;19.70;99.90;;;;;;4590195;19;19986;-28
2022/06/12 09:02:21;;;;;;;;;;;19.80;99.90;;;;;;4588861;19;19922;-34
2022/06/12 09:03:53;;;;;;;;;;;19.80;99.90;;;;;;4584613;19;19919;-33
2022/06/12 09:05:27;;;;;;;;;;;19.90;99.90;;;;;;4590172;19;19923;-33
2022/06/12 09:07:02;;;;;;;;;;;20.00;99.90;;;;;;4589471;19;20070;-31
2022/06/12 09:08:56;;;;;;;;;;;20.10;99.90;;;;;;4589756;19;19926;-32
2022/06/12 09:10:31;;;;;;;;;;;20.00;99.90;;;;;;4588269;19;20247;-32
2022/06/12 09:12:17;;;;;;;;;;;20.00;99.90;;;;;;4590192;19;20372;-32
2022/06/12 09:14:03;;;;;;;;;;;20.00;99.90;;;;;;4588981;19;20390;-31
2022/06/12 09:15:46;;;;;;;;;;;20.00;99.90;;;;;;4587906;19;19910;-33